Terminal Aerodrome Forecast
Issued by NWS Twin Cities, MN

Home | Current Version | Previous Version | Graphics & Text | Print | Product List | Glossary On
Versions: 1 2 3 4 5 6 7 8 9 10 11 12 13 14 15 16
942
FTUS43 KMPX 090937 AAA
TAFSTC
TAF AMD
KSTC 090937Z 0910/1006 30009KT P6SM SCT025 OVC050
     FM091300 29006KT P6SM BKN020 OVC040
     FM092300 30005KT P6SM SCT035 SCT200=

USA.gov is the U.S. government's official web portal to all federal, state and local government web resources and services.